sensor_id;sensor_type;location;lat;lon;timestamp;pressure;altitude;pressure_sealevel;temperature;humidity
35778;BME280;21899;42.662;23.316;2023-09-08T00:00:46;94936.91;;;20.20;86.35
35778;BME280;21899;42.662;23.316;2023-09-08T00:03:12;94929.84;;;20.23;87.09
35778;BME280;21899;42.662;23.316;2023-09-08T00:05:38;94932.78;;;20.28;86.87
35778;BME280;21899;42.662;23.316;2023-09-08T00:08:04;94925.16;;;20.23;87.00
35778;BME280;21899;42.662;23.316;2023-09-08T00:10:29;94930.41;;;20.30;86.36
35778;BME280;21899;42.662;23.316;2023-09-08T00:12:54;94935.84;;;20.30;86.08
35778;BME280;21899;42.662;23.316;2023-09-08T00:15:20;94933.56;;;20.29;85.53
35778;BME280;21899;42.662;23.316;2023-09-08T00:17:46;94912.88;;;20.19;85.42
35778;BME280;21899;42.662;23.316;2023-09-08T00:20:12;94913.13;;;20.24;80.18
35778;BME280;21899;42.662;23.316;2023-09-08T00:22:39;94919.09;;;20.19;78.60
35778;BME280;21899;42.662;23.316;2023-09-08T00:25:05;94922.97;;;20.18;78.84
35778;BME280;21899;42.662;23.316;2023-09-08T00:27:31;94924.53;;;20.19;77.69
35778;BME280;21899;42.662;23.316;2023-09-08T00:29:57;94912.22;;;20.15;76.50
35778;BME280;21899;42.662;23.316;2023-09-08T00:32:22;94910.00;;;20.10;75.49
35778;BME280;21899;42.662;23.316;2023-09-08T00:34:48;94919.94;;;20.16;75.14
35778;BME280;21899;42.662;23.316;2023-09-08T00:37:13;94905.75;;;19.96;74.53
35778;BME280;21899;42.662;23.316;2023-09-08T00:39:38;94914.78;;;20.06;74.00
35778;BME280;21899;42.662;23.316;2023-09-08T00:42:04;94914.97;;;19.99;74.36
35778;BME280;21899;42.662;23.316;2023-09-08T00:44:30;94910.84;;;19.94;75.25
35778;BME280;21899;42.662;23.316;2023-09-08T00:46:56;94922.06;;;19.96;76.25
35778;BME280;21899;42.662;23.316;2023-09-08T00:49:21;94904.44;;;19.88;76.22
35778;BME280;21899;42.662;23.316;2023-09-08T00:51:47;94912.34;;;19.83;76.54
35778;BME280;21899;42.662;23.316;2023-09-08T00:54:14;94903.94;;;19.77;76.85
35778;BME280;21899;42.662;23.316;2023-09-08T00:56:40;94906.72;;;19.90;76.57
35778;BME280;21899;42.662;23.316;2023-09-08T00:59:06;94913.41;;;19.85;76.61
35778;BME280;21899;42.662;23.316;2023-09-08T01:01:32;94903.94;;;19.77;75.90
35778;BME280;21899;42.662;23.316;2023-09-08T01:04:00;94906.00;;;19.73;76.44
35778;BME280;21899;42.662;23.316;2023-09-08T01:06:26;94906.66;;;19.77;76.96
35778;BME280;21899;42.662;23.316;2023-09-08T01:08:53;94902.44;;;19.76;76.78
35778;BME280;21899;42.662;23.316;2023-09-08T01:11:19;94898.50;;;19.77;76.19
35778;BME280;21899;42.662;23.316;2023-09-08T01:13:45;94899.84;;;19.85;75.75
35778;BME280;21899;42.662;23.316;2023-09-08T01:16:10;94907.00;;;19.79;75.77
35778;BME280;21899;42.662;23.316;2023-09-08T01:18:36;94910.47;;;19.80;75.05
35778;BME280;21899;42.662;23.316;2023-09-08T01:24:11;94902.44;;;19.76;75.45
35778;BME280;21899;42.662;23.316;2023-09-08T01:26:34;94900.78;;;19.79;74.83
35778;BME280;21899;42.662;23.316;2023-09-08T01:29:01;94904.28;;;19.79;75.21
35778;BME280;21899;42.662;23.316;2023-09-08T01:31:28;94907.75;;;19.80;75.19
35778;BME280;21899;42.662;23.316;2023-09-08T01:33:54;94910.56;;;19.76;76.01
35778;BME280;21899;42.662;23.316;2023-09-08T01:36:20;94902.63;;;19.69;77.35
35778;BME280;21899;42.662;23.316;2023-09-08T01:38:46;94908.75;;;19.57;78.62
35778;BME280;21899;42.662;23.316;2023-09-08T01:41:11;94903.84;;;19.52;79.21
35778;BME280;21899;42.662;23.316;2023-09-08T01:43:36;94890.78;;;19.47;79.64
35778;BME280;21899;42.662;23.316;2023-09-08T01:46:02;94896.81;;;19.55;79.42
35778;BME280;21899;42.662;23.316;2023-09-08T01:48:27;94895.50;;;19.59;79.26
35778;BME280;21899;42.662;23.316;2023-09-08T01:50:52;94895.09;;;19.61;79.29
35778;BME280;21899;42.662;23.316;2023-09-08T01:53:18;94895.69;;;19.52;79.99
35778;BME280;21899;42.662;23.316;2023-09-08T01:55:43;94891.66;;;19.44;80.34
35778;BME280;21899;42.662;23.316;2023-09-08T01:58:09;94887.09;;;19.41;80.99
35778;BME280;21899;42.662;23.316;2023-09-08T02:00:34;94895.66;;;19.39;81.64
35778;BME280;21899;42.662;23.316;2023-09-08T02:02:59;94894.53;;;19.37;82.09
35778;BME280;21899;42.662;23.316;2023-09-08T02:05:25;94884.38;;;19.25;83.73
35778;BME280;21899;42.662;23.316;2023-09-08T02:07:51;94887.63;;;19.20;84.79
35778;BME280;21899;42.662;23.316;2023-09-08T02:10:17;94893.22;;;19.13;85.73
35778;BME280;21899;42.662;23.316;2023-09-08T02:12:43;94876.19;;;18.96;86.55
35778;BME280;21899;42.662;23.316;2023-09-08T02:15:08;94888.16;;;18.99;87.61
35778;BME280;21899;42.662;23.316;2023-09-08T02:17:36;94871.34;;;18.88;88.38
35778;BME280;21899;42.662;23.316;2023-09-08T02:20:01;94878.31;;;18.89;89.14
35778;BME280;21899;42.662;23.316;2023-09-08T02:22:28;94872.91;;;18.89;90.22
35778;BME280;21899;42.662;23.316;2023-09-08T02:24:53;94872.22;;;18.85;91.28
35778;BME280;21899;42.662;23.316;2023-09-08T02:27:19;94874.59;;;18.83;92.28
35778;BME280;21899;42.662;23.316;2023-09-08T02:29:44;94874.25;;;18.81;92.71
35778;BME280;21899;42.662;23.316;2023-09-08T02:32:10;94861.53;;;18.78;93.19
35778;BME280;21899;42.662;23.316;2023-09-08T02:34:36;94873.94;;;18.79;93.40
35778;BME280;21899;42.662;23.316;2023-09-08T02:37:04;94860.38;;;18.79;93.95
35778;BME280;21899;42.662;23.316;2023-09-08T02:39:30;94863.16;;;18.75;94.77
35778;BME280;21899;42.662;23.316;2023-09-08T02:42:14;94869.16;;;18.83;95.21
35778;BME280;21899;42.662;23.316;2023-09-08T02:44:39;94866.66;;;18.76;96.79
35778;BME280;21899;42.662;23.316;2023-09-08T02:47:04;94866.28;;;18.74;98.01
35778;BME280;21899;42.662;23.316;2023-09-08T02:49:31;94867.47;;;18.57;99.90
35778;BME280;21899;42.662;23.316;2023-09-08T02:51:57;94866.97;;;18.46;100.00
35778;BME280;21899;42.662;23.316;2023-09-08T02:54:22;94880.00;;;18.51;100.00
35778;BME280;21899;42.662;23.316;2023-09-08T02:56:47;94870.03;;;18.48;100.00
35778;BME280;21899;42.662;23.316;2023-09-08T02:59:13;94865.19;;;18.39;100.00
35778;BME280;21899;42.662;23.316;2023-09-08T03:01:38;94874.09;;;18.56;100.00
35778;BME280;21899;42.662;23.316;2023-09-08T03:04:03;94856.78;;;18.50;100.00
35778;BME280;21899;42.662;23.316;2023-09-08T03:06:29;94874.94;;;18.53;100.00
35778;BME280;21899;42.662;23.316;2023-09-08T03:08:54;94861.66;;;18.39;100.00
35778;BME280;21899;42.662;23.316;2023-09-08T03:11:20;94857.94;;;18.33;100.00
35778;BME280;21899;42.662;23.316;2023-09-08T03:13:45;94871.81;;;18.35;100.00
35778;BME280;21899;42.662;23.316;2023-09-08T03:16:10;94864.75;;;18.41;100.00
35778;BME280;21899;42.662;23.316;2023-09-08T03:18:37;94864.28;;;18.26;100.00
35778;BME280;21899;42.662;23.316;2023-09-08T03:21:03;94856.03;;;18.13;100.00
35778;BME280;21899;42.662;23.316;2023-09-08T03:23:38;94863.53;;;18.26;100.00
35778;BME280;21899;42.662;23.316;2023-09-08T03:26:04;94869.00;;;18.22;100.00
35778;BME280;21899;42.662;23.316;2023-09-08T03:28:31;94875.34;;;18.15;100.00
35778;BME280;21899;42.662;23.316;2023-09-08T03:30:56;94872.28;;;18.13;100.00
35778;BME280;21899;42.662;23.316;2023-09-08T03:33:21;94860.88;;;18.06;100.00
35778;BME280;21899;42.662;23.316;2023-09-08T03:35:47;94875.16;;;18.06;100.00
35778;BME280;21899;42.662;23.316;2023-09-08T03:38:12;94876.28;;;18.09;100.00
35778;BME280;21899;42.662;23.316;2023-09-08T03:40:37;94877.78;;;18.10;100.00
35778;BME280;21899;42.662;23.316;2023-09-08T03:43:04;94878.41;;;18.17;100.00
35778;BME280;21899;42.662;23.316;2023-09-08T03:45:29;94888.53;;;18.13;100.00
35778;BME280;21899;42.662;23.316;2023-09-08T03:47:54;94879.34;;;18.11;100.00
35778;BME280;21899;42.662;23.316;2023-09-08T03:50:20;94871.69;;;18.06;100.00
35778;BME280;21899;42.662;23.316;2023-09-08T03:52:45;94873.13;;;18.10;100.00
35778;BME280;21899;42.662;23.316;2023-09-08T03:55:11;94874.59;;;18.15;100.00
35778;BME280;21899;42.662;23.316;2023-09-08T03:57:36;94875.69;;;18.17;100.00
35778;BME280;21899;42.662;23.316;2023-09-08T04:00:02;94869.66;;;18.10;100.00
35778;BME280;21899;42.662;23.316;2023-09-08T04:02:29;94883.84;;;18.17;100.00
35778;BME280;21899;42.662;23.316;2023-09-08T04:04:55;94873.16;;;18.27;100.00
35778;BME280;21899;42.662;23.316;2023-09-08T04:07:20;94884.34;;;18.29;100.00
35778;BME280;21899;42.662;23.316;2023-09-08T04:09:46;94881.84;;;18.38;100.00
35778;BME280;21899;42.662;23.316;2023-09-08T04:12:11;94887.25;;;18.38;100.00
35778;BME280;21899;42.662;23.316;2023-09-08T04:14:37;94877.13;;;18.42;100.00
35778;BME280;21899;42.662;23.316;2023-09-08T04:17:02;94880.78;;;18.32;100.00
35778;BME280;21899;42.662;23.316;2023-09-08T04:19:28;94880.44;;;18.30;100.00
35778;BME280;21899;42.662;23.316;2023-09-08T04:21:53;94877.41;;;18.28;100.00
35778;BME280;21899;42.662;23.316;2023-09-08T04:24:18;94880.13;;;18.28;100.00
35778;BME280;21899;42.662;23.316;2023-09-08T04:26:45;94888.69;;;18.26;100.00
35778;BME280;21899;42.662;23.316;2023-09-08T04:29:10;94890.47;;;18.33;100.00
35778;BME280;21899;42.662;23.316;2023-09-08T04:31:36;94890.53;;;18.29;100.00
35778;BME280;21899;42.662;23.316;2023-09-08T04:34:01;94885.38;;;18.35;100.00
35778;BME280;21899;42.662;23.316;2023-09-08T04:36:26;94877.22;;;18.35;100.00
35778;BME280;21899;42.662;23.316;2023-09-08T04:38:52;94888.66;;;18.46;100.00
35778;BME280;21899;42.662;23.316;2023-09-08T04:41:17;94896.53;;;18.56;100.00
35778;BME280;21899;42.662;23.316;2023-09-08T04:43:43;94892.72;;;18.54;100.00
35778;BME280;21899;42.662;23.316;2023-09-08T04:46:08;94885.63;;;18.76;100.00
35778;BME280;21899;42.662;23.316;2023-09-08T04:48:33;94876.69;;;18.91;100.00
35778;BME280;21899;42.662;23.316;2023-09-08T04:50:59;94895.25;;;19.09;100.00
35778;BME280;21899;42.662;23.316;2023-09-08T04:53:25;94880.84;;;19.12;100.00
35778;BME280;21899;42.662;23.316;2023-09-08T04:55:50;94895.16;;;19.28;100.00
35778;BME280;21899;42.662;23.316;2023-09-08T04:58:16;94889.97;;;19.34;100.00
35778;BME280;21899;42.662;23.316;2023-09-08T05:00:41;94892.94;;;19.39;100.00
35778;BME280;21899;42.662;23.316;2023-09-08T05:03:07;94894.03;;;19.42;100.00
35778;BME280;21899;42.662;23.316;2023-09-08T05:05:32;94880.78;;;19.73;100.00
35778;BME280;21899;42.662;23.316;2023-09-08T05:07:57;94883.75;;;19.78;100.00
35778;BME280;21899;42.662;23.316;2023-09-08T05:10:23;94895.53;;;20.00;100.00
35778;BME280;21899;42.662;23.316;2023-09-08T05:12:49;94890.97;;;19.97;100.00
35778;BME280;21899;42.662;23.316;2023-09-08T05:15:15;94896.19;;;20.04;99.30
35778;BME280;21899;42.662;23.316;2023-09-08T05:17:41;94896.19;;;20.04;98.74
35778;BME280;21899;42.662;23.316;2023-09-08T05:20:08;94887.50;;;20.09;96.90
35778;BME280;21899;42.662;23.316;2023-09-08T05:22:33;94890.38;;;20.18;94.62
35778;BME280;21899;42.662;23.316;2023-09-08T05:24:59;94894.97;;;20.34;92.31
35778;BME280;21899;42.662;23.316;2023-09-08T05:27:24;94888.13;;;20.29;90.22
35778;BME280;21899;42.662;23.316;2023-09-08T05:29:50;94897.03;;;20.42;88.26
35778;BME280;21899;42.662;23.316;2023-09-08T05:32:15;94890.28;;;20.34;87.02
35778;BME280;21899;42.662;23.316;2023-09-08T05:34:40;94893.97;;;20.53;85.55
35778;BME280;21899;42.662;23.316;2023-09-08T05:37:06;94885.59;;;20.60;85.16
35778;BME280;21899;42.662;23.316;2023-09-08T05:39:31;94896.91;;;20.84;84.04
35778;BME280;21899;42.662;23.316;2023-09-08T05:41:56;94893.63;;;20.76;83.24
35778;BME280;21899;42.662;23.316;2023-09-08T05:44:22;94886.66;;;20.88;83.08
35778;BME280;21899;42.662;23.316;2023-09-08T05:46:47;94904.75;;;21.07;82.17
35778;BME280;21899;42.662;23.316;2023-09-08T05:49:13;94901.97;;;21.19;80.77
35778;BME280;21899;42.662;23.316;2023-09-08T05:51:39;94901.88;;;21.23;77.11
35778;BME280;21899;42.662;23.316;2023-09-08T05:54:04;94888.59;;;21.25;75.43
35778;BME280;21899;42.662;23.316;2023-09-08T05:56:31;94899.81;;;21.27;72.94
35778;BME280;21899;42.662;23.316;2023-09-08T05:58:57;94902.91;;;21.38;70.34
35778;BME280;21899;42.662;23.316;2023-09-08T06:01:23;94905.31;;;21.36;70.56
35778;BME280;21899;42.662;23.316;2023-09-08T06:03:49;94906.72;;;21.40;69.15
35778;BME280;21899;42.662;23.316;2023-09-08T06:06:14;94906.13;;;21.58;68.96
35778;BME280;21899;42.662;23.316;2023-09-08T06:08:40;94917.06;;;21.67;68.57
35778;BME280;21899;42.662;23.316;2023-09-08T06:11:05;94919.66;;;21.83;67.82
35778;BME280;21899;42.662;23.316;2023-09-08T06:13:31;94913.13;;;21.80;67.25
35778;BME280;21899;42.662;23.316;2023-09-08T06:15:56;94916.19;;;21.82;65.59
35778;BME280;21899;42.662;23.316;2023-09-08T06:18:21;94916.28;;;21.79;65.45
35778;BME280;21899;42.662;23.316;2023-09-08T06:20:47;94913.00;;;21.84;65.28
35778;BME280;21899;42.662;23.316;2023-09-08T06:23:13;94918.94;;;21.91;65.04
35778;BME280;21899;42.662;23.316;2023-09-08T06:25:39;94917.97;;;21.98;62.09
35778;BME280;21899;42.662;23.316;2023-09-08T06:28:04;94922.25;;;22.08;60.78
35778;BME280;21899;42.662;23.316;2023-09-08T06:30:30;94925.03;;;22.17;60.23
35778;BME280;21899;42.662;23.316;2023-09-08T06:32:55;94931.38;;;22.36;58.14
35778;BME280;21899;42.662;23.316;2023-09-08T06:35:21;94935.47;;;22.40;57.69
35778;BME280;21899;42.662;23.316;2023-09-08T06:37:46;94942.50;;;22.50;57.36
35778;BME280;21899;42.662;23.316;2023-09-08T06:40:12;94939.13;;;22.46;55.96
35778;BME280;21899;42.662;23.316;2023-09-08T06:42:37;94931.50;;;22.54;55.73
35778;BME280;21899;42.662;23.316;2023-09-08T06:45:03;94930.06;;;22.71;54.03
35778;BME280;21899;42.662;23.316;2023-09-08T06:47:28;94932.81;;;22.80;52.47
35778;BME280;21899;42.662;23.316;2023-09-08T06:49:53;94934.63;;;22.83;51.02
35778;BME280;21899;42.662;23.316;2023-09-08T06:52:19;94940.88;;;22.83;51.48
35778;BME280;21899;42.662;23.316;2023-09-08T06:54:44;94939.38;;;22.91;51.76
35778;BME280;21899;42.662;23.316;2023-09-08T06:57:13;94940.59;;;22.90;51.41
35778;BME280;21899;42.662;23.316;2023-09-08T06:59:38;94936.38;;;23.07;51.18
35778;BME280;21899;42.662;23.316;2023-09-08T07:02:04;94936.72;;;23.09;50.89
35778;BME280;21899;42.662;23.316;2023-09-08T07:04:30;94935.53;;;23.19;50.49
35778;BME280;21899;42.662;23.316;2023-09-08T07:06:56;94942.56;;;23.30;48.77
35778;BME280;21899;42.662;23.316;2023-09-08T07:09:21;94943.19;;;23.34;49.53
35778;BME280;21899;42.662;23.316;2023-09-08T07:11:46;94945.00;;;23.37;48.76
35778;BME280;21899;42.662;23.316;2023-09-08T07:14:12;94937.41;;;23.41;48.87
35778;BME280;21899;42.662;23.316;2023-09-08T07:16:37;94940.75;;;23.54;48.55
35778;BME280;21899;42.662;23.316;2023-09-08T07:19:03;94943.06;;;23.64;47.81
35778;BME280;21899;42.662;23.316;2023-09-08T07:21:28;94932.28;;;23.79;47.49
35778;BME280;21899;42.662;23.316;2023-09-08T07:23:54;94927.44;;;24.01;46.65
35778;BME280;21899;42.662;23.316;2023-09-08T07:26:19;94938.34;;;24.28;45.71
35778;BME280;21899;42.662;23.316;2023-09-08T07:28:45;94924.69;;;24.19;46.40
35778;BME280;21899;42.662;23.316;2023-09-08T07:31:10;94925.00;;;24.12;46.59
35778;BME280;21899;42.662;23.316;2023-09-08T07:33:37;94939.84;;;24.38;46.70
35778;BME280;21899;42.662;23.316;2023-09-08T07:36:07;94932.09;;;24.45;45.20
35778;BME280;21899;42.662;23.316;2023-09-08T07:38:32;94935.31;;;24.26;45.46
35778;BME280;21899;42.662;23.316;2023-09-08T07:40:58;94925.91;;;24.09;45.71
35778;BME280;21899;42.662;23.316;2023-09-08T07:43:26;94912.53;;;24.11;45.99
35778;BME280;21899;42.662;23.316;2023-09-08T07:45:51;94933.66;;;24.19;45.75
35778;BME280;21899;42.662;23.316;2023-09-08T07:48:17;94932.00;;;24.13;45.85
35778;BME280;21899;42.662;23.316;2023-09-08T07:50:42;94927.41;;;24.10;45.97
35778;BME280;21899;42.662;23.316;2023-09-08T07:53:08;94916.47;;;24.10;45.91
35778;BME280;21899;42.662;23.316;2023-09-08T07:55:33;94925.56;;;24.34;45.55
35778;BME280;21899;42.662;23.316;2023-09-08T07:58:00;94932.19;;;24.60;45.58
35778;BME280;21899;42.662;23.316;2023-09-08T08:00:26;94932.06;;;24.96;44.76
35778;BME280;21899;42.662;23.316;2023-09-08T08:02:54;94926.84;;;25.07;43.88
35778;BME280;21899;42.662;23.316;2023-09-08T08:05:20;94920.72;;;25.12;43.34
35778;BME280;21899;42.662;23.316;2023-09-08T08:07:46;94919.44;;;25.22;43.81
35778;BME280;21899;42.662;23.316;2023-09-08T08:10:12;94915.41;;;25.41;43.13
35778;BME280;21899;42.662;23.316;2023-09-08T08:12:41;94920.44;;;25.34;42.16
35778;BME280;21899;42.662;23.316;2023-09-08T08:15:07;94915.34;;;25.50;42.62
35778;BME280;21899;42.662;23.316;2023-09-08T08:17:35;94924.50;;;25.71;42.04
35778;BME280;21899;42.662;23.316;2023-09-08T08:20:01;94926.47;;;25.70;41.90
35778;BME280;21899;42.662;23.316;2023-09-08T08:22:42;94926.19;;;25.68;40.61
35778;BME280;21899;42.662;23.316;2023-09-08T08:25:08;94912.84;;;25.61;40.98
35778;BME280;21899;42.662;23.316;2023-09-08T08:27:33;94917.09;;;25.62;40.49
35778;BME280;21899;42.662;23.316;2023-09-08T08:29:59;94918.97;;;25.56;41.35
35778;BME280;21899;42.662;23.316;2023-09-08T08:32:26;94919.63;;;25.90;40.80
35778;BME280;21899;42.662;23.316;2023-09-08T08:34:52;94910.41;;;26.02;40.87
35778;BME280;21899;42.662;23.316;2023-09-08T08:37:18;94909.84;;;26.41;40.68
35778;BME280;21899;42.662;23.316;2023-09-08T08:39:43;94905.03;;;26.51;38.94
35778;BME280;21899;42.662;23.316;2023-09-08T08:42:12;94909.41;;;26.72;38.87
35778;BME280;21899;42.662;23.316;2023-09-08T08:44:39;94890.72;;;26.76;38.42
35778;BME280;21899;42.662;23.316;2023-09-08T08:47:07;94904.59;;;26.67;36.50
35778;BME280;21899;42.662;23.316;2023-09-08T08:49:33;94908.44;;;26.75;37.06
35778;BME280;21899;42.662;23.316;2023-09-08T08:51:59;94898.88;;;26.85;37.22
35778;BME280;21899;42.662;23.316;2023-09-08T08:54:25;94902.44;;;26.91;36.34
35778;BME280;21899;42.662;23.316;2023-09-08T08:56:51;94904.91;;;27.04;36.03
35778;BME280;21899;42.662;23.316;2023-09-08T08:59:17;94903.84;;;27.36;36.03
35778;BME280;21899;42.662;23.316;2023-09-08T09:01:43;94903.25;;;27.66;35.59
35778;BME280;21899;42.662;23.316;2023-09-08T09:04:10;94888.72;;;27.86;35.16
35778;BME280;21899;42.662;23.316;2023-09-08T09:06:36;94902.84;;;27.93;35.41
35778;BME280;21899;42.662;23.316;2023-09-08T09:09:02;94895.19;;;27.83;34.93
35778;BME280;21899;42.662;23.316;2023-09-08T09:11:30;94908.41;;;27.59;35.76
35778;BME280;21899;42.662;23.316;2023-09-08T09:13:57;94900.22;;;27.44;36.00
35778;BME280;21899;42.662;23.316;2023-09-08T09:16:23;94903.53;;;27.48;35.88
35778;BME280;21899;42.662;23.316;2023-09-08T09:18:56;94895.69;;;27.41;35.70
35778;BME280;21899;42.662;23.316;2023-09-08T09:21:22;94904.06;;;27.32;36.37
35778;BME280;21899;42.662;23.316;2023-09-08T09:23:48;94914.38;;;27.37;35.97
35778;BME280;21899;42.662;23.316;2023-09-08T09:26:24;94893.63;;;27.36;35.52
35778;BME280;21899;42.662;23.316;2023-09-08T09:28:50;94901.31;;;27.32;36.22
35778;BME280;21899;42.662;23.316;2023-09-08T09:31:17;94901.09;;;27.01;36.54
35778;BME280;21899;42.662;23.316;2023-09-08T09:33:43;94898.63;;;27.03;36.34
35778;BME280;21899;42.662;23.316;2023-09-08T09:36:08;94901.66;;;27.05;36.48
35778;BME280;21899;42.662;23.316;2023-09-08T09:38:34;94898.78;;;27.14;35.91
35778;BME280;21899;42.662;23.316;2023-09-08T09:41:00;94895.31;;;26.99;36.46
35778;BME280;21899;42.662;23.316;2023-09-08T09:43:27;94901.66;;;27.05;36.16
35778;BME280;21899;42.662;23.316;2023-09-08T09:45:53;94892.69;;;27.25;35.84
35778;BME280;21899;42.662;23.316;2023-09-08T09:48:20;94896.59;;;27.18;36.26
35778;BME280;21899;42.662;23.316;2023-09-08T09:50:46;94886.88;;;27.37;36.25
35778;BME280;21899;42.662;23.316;2023-09-08T09:53:15;94888.91;;;27.22;36.46
35778;BME280;21899;42.662;23.316;2023-09-08T09:55:44;94885.19;;;27.05;36.18
35778;BME280;21899;42.662;23.316;2023-09-08T09:58:11;94892.13;;;26.86;36.46
35778;BME280;21899;42.662;23.316;2023-09-08T10:00:37;94892.25;;;26.77;36.94
35778;BME280;21899;42.662;23.316;2023-09-08T10:03:06;94882.22;;;26.45;37.66
35778;BME280;21899;42.662;23.316;2023-09-08T10:05:33;94877.69;;;26.13;38.00
35778;BME280;21899;42.662;23.316;2023-09-08T10:07:59;94879.31;;;26.05;38.93
35778;BME280;21899;42.662;23.316;2023-09-08T10:10:27;94875.91;;;25.72;39.81
35778;BME280;21899;42.662;23.316;2023-09-08T10:12:54;94862.91;;;25.57;39.77
35778;BME280;21899;42.662;23.316;2023-09-08T10:15:24;94876.22;;;25.50;39.17
35778;BME280;21899;42.662;23.316;2023-09-08T10:17:56;94868.19;;;25.85;39.38
35778;BME280;21899;42.662;23.316;2023-09-08T10:20:27;94870.84;;;26.08;39.33
35778;BME280;21899;42.662;23.316;2023-09-08T10:23:04;94857.91;;;26.09;39.35
35778;BME280;21899;42.662;23.316;2023-09-08T10:25:34;94865.59;;;26.05;39.71
35778;BME280;21899;42.662;23.316;2023-09-08T10:28:01;94858.16;;;25.82;39.20
35778;BME280;21899;42.662;23.316;2023-09-08T10:30:27;94846.75;;;25.59;39.33
35778;BME280;21899;42.662;23.316;2023-09-08T10:32:54;94857.88;;;25.41;39.69
35778;BME280;21899;42.662;23.316;2023-09-08T10:35:20;94848.16;;;25.31;40.08
35778;BME280;21899;42.662;23.316;2023-09-08T10:37:46;94856.69;;;25.33;40.41
35778;BME280;21899;42.662;23.316;2023-09-08T10:40:24;94856.41;;;25.55;41.04
35778;BME280;21899;42.662;23.316;2023-09-08T10:43:10;94855.16;;;25.32;41.29
35778;BME280;21899;42.662;23.316;2023-09-08T10:45:36;94852.66;;;25.20;41.71
35778;BME280;21899;42.662;23.316;2023-09-08T10:48:02;94847.41;;;25.31;41.41
35778;BME280;21899;42.662;23.316;2023-09-08T10:50:34;94835.59;;;25.48;41.60
35778;BME280;21899;42.662;23.316;2023-09-08T10:53:17;94851.44;;;25.83;41.07
35778;BME280;21899;42.662;23.316;2023-09-08T10:58:32;94853.09;;;26.04;40.47
35778;BME280;21899;42.662;23.316;2023-09-08T11:00:59;94852.72;;;26.11;40.55
35778;BME280;21899;42.662;23.316;2023-09-08T11:06:04;94833.38;;;25.76;40.56
35778;BME280;21899;42.662;23.316;2023-09-08T11:08:30;94846.25;;;25.85;40.64
35778;BME280;21899;42.662;23.316;2023-09-08T11:10:56;94840.75;;;25.85;40.98
35778;BME280;21899;42.662;23.316;2023-09-08T11:13:22;94850.63;;;26.06;41.05
35778;BME280;21899;42.662;23.316;2023-09-08T11:15:47;94844.47;;;26.11;40.47
35778;BME280;21899;42.662;23.316;2023-09-08T11:18:15;94830.38;;;26.03;40.57
35778;BME280;21899;42.662;23.316;2023-09-08T11:20:41;94836.22;;;25.82;40.94
35778;BME280;21899;42.662;23.316;2023-09-08T11:23:06;94840.28;;;25.72;41.29
35778;BME280;21899;42.662;23.316;2023-09-08T11:25:32;94822.41;;;25.76;40.95
35778;BME280;21899;42.662;23.316;2023-09-08T11:27:58;94832.88;;;25.78;41.08
35778;BME280;21899;42.662;23.316;2023-09-08T11:30:24;94837.34;;;25.37;41.57
35778;BME280;21899;42.662;23.316;2023-09-08T11:32:50;94830.41;;;25.27;42.23
35778;BME280;21899;42.662;23.316;2023-09-08T11:35:16;94840.28;;;25.24;42.35
35778;BME280;21899;42.662;23.316;2023-09-08T11:37:42;94838.09;;;25.14;42.62
35778;BME280;21899;42.662;23.316;2023-09-08T11:40:09;94825.22;;;25.05;43.20
35778;BME280;21899;42.662;23.316;2023-09-08T11:42:38;94833.22;;;25.32;42.79
35778;BME280;21899;42.662;23.316;2023-09-08T11:45:15;94833.38;;;25.76;41.82
35778;BME280;21899;42.662;23.316;2023-09-08T11:47:47;94822.22;;;25.94;41.45
35778;BME280;21899;42.662;23.316;2023-09-08T11:50:14;94807.75;;;25.94;41.28
35778;BME280;21899;42.662;23.316;2023-09-08T11:52:44;94809.06;;;25.84;41.28
35778;BME280;21899;42.662;23.316;2023-09-08T11:55:11;94810.41;;;25.88;41.62
35778;BME280;21899;42.662;23.316;2023-09-08T11:57:38;94820.59;;;25.88;41.76
35778;BME280;21899;42.662;23.316;2023-09-08T12:00:05;94812.09;;;25.86;41.75
35778;BME280;21899;42.662;23.316;2023-09-08T12:02:37;94812.63;;;25.75;41.68
35778;BME280;21899;42.662;23.316;2023-09-08T12:05:04;94815.19;;;25.79;41.99
35778;BME280;21899;42.662;23.316;2023-09-08T12:07:29;94803.50;;;26.07;41.58
35778;BME280;21899;42.662;23.316;2023-09-08T12:09:55;94814.19;;;26.20;41.62
35778;BME280;21899;42.662;23.316;2023-09-08T12:12:20;94800.88;;;26.13;40.43
35778;BME280;21899;42.662;23.316;2023-09-08T12:14:46;94800.22;;;26.18;41.00
35778;BME280;21899;42.662;23.316;2023-09-08T12:17:11;94799.91;;;26.30;40.58
35778;BME280;21899;42.662;23.316;2023-09-08T12:19:40;94804.63;;;26.30;40.16
35778;BME280;21899;42.662;23.316;2023-09-08T12:22:07;94795.91;;;26.31;40.03
35778;BME280;21899;42.662;23.316;2023-09-08T12:24:48;94802.53;;;26.39;40.22
35778;BME280;21899;42.662;23.316;2023-09-08T12:27:15;94790.91;;;26.44;39.95
35778;BME280;21899;42.662;23.316;2023-09-08T12:30:02;94799.28;;;26.55;39.70
35778;BME280;21899;42.662;23.316;2023-09-08T12:32:30;94784.94;;;26.46;38.77
35778;BME280;21899;42.662;23.316;2023-09-08T12:34:58;94792.50;;;26.36;39.16
35778;BME280;21899;42.662;23.316;2023-09-08T12:37:24;94772.31;;;26.54;38.50
35778;BME280;21899;42.662;23.316;2023-09-08T12:39:52;94777.63;;;26.43;38.46
35778;BME280;21899;42.662;23.316;2023-09-08T12:42:18;94772.16;;;26.28;38.74
35778;BME280;21899;42.662;23.316;2023-09-08T12:44:43;94777.22;;;26.50;38.96
35778;BME280;21899;42.662;23.316;2023-09-08T12:47:10;94767.09;;;26.56;38.44
35778;BME280;21899;42.662;23.316;2023-09-08T12:49:37;94764.06;;;26.54;38.62
35778;BME280;21899;42.662;23.316;2023-09-08T12:52:03;94776.84;;;26.57;39.06